createdAt,value
2018-11-07T00:00:21.614Z,10.42
2018-11-07T00:01:22.339Z,10.56
2018-11-07T00:02:21.599Z,10.54
2018-11-07T00:03:21.589Z,10.54
2018-11-07T00:04:21.590Z,10.56
2018-11-07T00:05:21.587Z,10.56
2018-11-07T00:06:21.572Z,10.54
2018-11-07T00:07:21.565Z,10.56
2018-11-07T00:08:21.604Z,10.61
2018-11-07T00:09:21.546Z,10.59
2018-11-07T00:10:21.536Z,10.57
2018-11-07T00:11:21.527Z,10.64
2018-11-07T00:12:21.524Z,10.60
2018-11-07T00:13:21.519Z,10.64
2018-11-07T00:14:21.509Z,10.63
2018-11-07T00:15:21.496Z,10.60
2018-11-07T00:16:21.490Z,10.69
2018-11-07T00:17:21.483Z,10.67
2018-11-07T00:18:21.484Z,10.69
2018-11-07T00:19:21.481Z,10.75
2018-11-07T00:20:21.477Z,10.69
2018-11-07T00:21:21.453Z,10.69
2018-11-07T00:22:21.441Z,10.69
2018-11-07T00:23:21.466Z,10.64
2018-11-07T00:24:21.427Z,10.64
2018-11-07T00:25:21.498Z,10.64
2018-11-07T00:26:21.425Z,10.68
2018-11-07T00:27:21.404Z,10.64
2018-11-07T00:28:21.404Z,10.69
2018-11-07T00:29:21.406Z,10.71
2018-11-07T00:30:21.481Z,10.68
2018-11-07T00:31:21.371Z,10.63
2018-11-07T00:32:21.359Z,10.68
2018-11-07T00:33:21.360Z,10.57
2018-11-07T00:34:21.353Z,10.64
2018-11-07T00:35:21.352Z,10.59
2018-11-07T00:36:21.330Z,10.67
2018-11-07T00:37:21.326Z,10.56
2018-11-07T00:38:21.313Z,10.49
2018-11-07T00:39:21.311Z,10.46
2018-11-07T00:40:21.299Z,10.48
2018-11-07T00:41:21.302Z,10.48
2018-11-07T00:42:21.373Z,10.53
2018-11-07T00:43:21.289Z,10.49
2018-11-07T00:44:21.267Z,10.49
2018-11-07T00:45:21.267Z,10.49
2018-11-07T00:46:21.254Z,10.40
2018-11-07T00:47:21.261Z,10.49
2018-11-07T00:48:21.234Z,10.38
2018-11-07T00:49:21.227Z,10.37
2018-11-07T00:50:21.219Z,10.38
2018-11-07T00:51:21.212Z,10.42
2018-11-07T00:52:21.214Z,10.40
2018-11-07T00:53:21.199Z,10.46
2018-11-07T00:54:21.195Z,10.35
2018-11-07T00:55:21.204Z,10.34
2018-11-07T00:56:21.173Z,10.42
2018-11-07T00:57:21.168Z,10.30
2018-11-07T00:58:21.158Z,10.35
2018-11-07T00:59:21.156Z,10.37
2018-11-07T01:00:21.197Z,10.37
2018-11-07T01:01:21.134Z,10.31
2018-11-07T01:02:21.133Z,10.33
2018-11-07T01:03:21.143Z,10.33
2018-11-07T01:04:21.114Z,10.33
2018-11-07T01:05:21.104Z,10.35
2018-11-07T01:06:21.101Z,10.41
2018-11-07T01:07:21.089Z,10.35
2018-11-07T01:08:21.079Z,10.33
2018-11-07T01:09:21.078Z,10.31
2018-11-07T01:10:21.067Z,10.37
2018-11-07T01:11:21.067Z,10.35
2018-11-07T01:12:21.046Z,10.41
2018-11-07T01:13:21.043Z,10.34
2018-11-07T01:14:21.033Z,10.40
2018-11-07T01:15:21.024Z,10.34
2018-11-07T01:16:21.022Z,10.34
2018-11-07T01:17:21.009Z,10.28
2018-11-07T01:18:21.016Z,10.31
2018-11-07T01:19:20.995Z,10.28
2018-11-07T01:20:20.986Z,10.33
2018-11-07T01:21:20.975Z,10.25
2018-11-07T01:22:21.041Z,10.26
2018-11-07T01:23:21.001Z,10.33
2018-11-07T01:24:20.951Z,10.28
2018-11-07T01:25:20.967Z,10.28
2018-11-07T01:26:20.941Z,10.28
2018-11-07T01:27:20.930Z,10.28
2018-11-07T01:28:21.029Z,10.31
2018-11-07T01:29:20.918Z,10.38
2018-11-07T01:30:20.908Z,10.26
2018-11-07T01:31:20.943Z,10.28
2018-11-07T01:32:20.895Z,10.38
2018-11-07T01:33:20.885Z,10.33
2018-11-07T01:34:20.878Z,10.49
2018-11-07T01:35:20.872Z,10.40
2018-11-07T01:36:20.887Z,10.38
2018-11-07T01:37:20.869Z,10.37
2018-11-07T01:38:20.854Z,10.48
2018-11-07T01:39:20.864Z,10.42
2018-11-07T01:40:20.833Z,10.48
2018-11-07T01:41:20.819Z,10.51
2018-11-07T01:42:20.814Z,10.51
2018-11-07T01:43:20.808Z,10.53
2018-11-07T01:44:20.799Z,10.56
2018-11-07T01:45:20.791Z,10.59
2018-11-07T01:46:20.799Z,10.61
2018-11-07T01:47:20.776Z,10.68
2018-11-07T01:48:20.775Z,10.72
2018-11-07T01:49:20.778Z,10.69
2018-11-07T01:50:20.755Z,10.68
2018-11-07T01:51:20.746Z,10.68
2018-11-07T01:52:20.734Z,10.78
2018-11-07T01:53:20.735Z,10.82
2018-11-07T01:54:20.722Z,10.79
2018-11-07T01:55:20.707Z,10.71
2018-11-07T01:56:20.701Z,10.78
2018-11-07T01:57:20.697Z,10.78
2018-11-07T01:58:20.702Z,10.76
2018-11-07T01:59:20.689Z,10.79
2018-11-07T02:00:20.685Z,10.79
2018-11-07T02:01:20.664Z,10.89
2018-11-07T02:02:20.653Z,10.92
2018-11-07T02:03:20.644Z,10.81
2018-11-07T02:04:20.636Z,10.92
2018-11-07T02:05:20.628Z,10.86
2018-11-07T02:06:20.629Z,10.84
2018-11-07T02:07:20.630Z,10.97
2018-11-07T02:08:20.613Z,10.90
2018-11-07T02:09:20.602Z,10.89
2018-11-07T02:10:20.588Z,10.99
2018-11-07T02:11:20.589Z,10.97
2018-11-07T02:12:20.574Z,10.92
2018-11-07T02:13:20.585Z,10.92
2018-11-07T02:14:20.573Z,10.87
2018-11-07T02:15:20.552Z,10.93
2018-11-07T02:16:20.543Z,10.93
2018-11-07T02:17:20.541Z,10.93
2018-11-07T02:18:20.525Z,11.05
2018-11-07T02:19:20.521Z,10.93
2018-11-07T02:20:20.533Z,10.92
2018-11-07T02:21:20.500Z,10.86
2018-11-07T02:22:20.496Z,10.96
2018-11-07T02:23:20.488Z,10.93
2018-11-07T02:24:20.495Z,10.94
2018-11-07T02:25:20.473Z,10.94
2018-11-07T02:26:20.553Z,10.89
2018-11-07T02:27:20.468Z,10.94
2018-11-07T02:28:20.444Z,10.93
2018-11-07T02:29:20.441Z,10.93
2018-11-07T02:30:20.431Z,10.82
2018-11-07T02:31:20.420Z,10.93
2018-11-07T02:32:20.430Z,10.87
2018-11-07T02:33:20.408Z,10.86
2018-11-07T02:34:20.398Z,10.89
2018-11-07T02:35:20.413Z,10.78
2018-11-07T02:36:20.381Z,10.81
2018-11-07T02:37:20.378Z,10.84
2018-11-07T02:38:20.372Z,10.79
2018-11-07T02:39:20.359Z,10.72
2018-11-07T02:40:20.352Z,10.74
2018-11-07T02:41:20.343Z,10.75
2018-11-07T02:42:20.352Z,10.78
2018-11-07T02:43:20.326Z,10.75
2018-11-07T02:44:20.321Z,10.76
2018-11-07T02:45:20.311Z,10.71
2018-11-07T02:46:20.303Z,10.68
2018-11-07T02:47:20.292Z,10.67
2018-11-07T02:48:20.291Z,10.72
2018-11-07T02:49:20.278Z,10.72
2018-11-07T02:50:20.359Z,10.74
2018-11-07T02:51:20.292Z,10.67
2018-11-07T02:52:20.260Z,10.68
2018-11-07T02:53:20.284Z,10.68
2018-11-07T02:54:20.244Z,10.64
2018-11-07T02:55:20.236Z,10.72
2018-11-07T02:56:20.221Z,10.61
2018-11-07T02:57:20.221Z,10.54
2018-11-07T02:58:20.209Z,10.61
2018-11-07T02:59:20.202Z,10.54
2018-11-07T03:00:20.189Z,10.57
2018-11-07T03:01:20.263Z,10.51
2018-11-07T03:02:20.182Z,10.56
2018-11-07T03:03:20.175Z,10.57
2018-11-07T03:04:20.159Z,10.57
2018-11-07T03:05:20.159Z,10.59
2018-11-07T03:06:20.144Z,10.60
2018-11-07T03:07:20.136Z,10.57
2018-11-07T03:08:20.132Z,10.63
2018-11-07T03:09:20.127Z,10.63
2018-11-07T03:10:20.164Z,10.60
2018-11-07T03:11:20.101Z,10.59
2018-11-07T03:12:20.106Z,10.53
2018-11-07T03:13:20.102Z,10.53
2018-11-07T03:14:20.078Z,10.60
2018-11-07T03:15:20.077Z,10.56
2018-11-07T03:16:20.075Z,10.56
2018-11-07T03:17:20.057Z,10.60
2018-11-07T03:18:20.050Z,10.51
2018-11-07T03:19:20.039Z,10.42
2018-11-07T03:20:20.036Z,10.42
2018-11-07T03:21:20.022Z,10.49
2018-11-07T03:22:20.016Z,10.42
2018-11-07T03:23:20.009Z,10.46
2018-11-07T03:24:20.001Z,10.49
2018-11-07T03:25:19.990Z,10.46
2018-11-07T03:26:19.985Z,10.46
2018-11-07T03:27:19.993Z,10.46
2018-11-07T03:28:19.969Z,10.48
2018-11-07T03:29:20.928Z,10.48
2018-11-07T03:30:19.959Z,10.46
2018-11-07T03:31:19.942Z,10.51
2018-11-07T03:32:19.936Z,10.46
2018-11-07T03:33:19.942Z,10.49
2018-11-07T03:34:19.922Z,10.46
2018-11-07T03:35:19.912Z,10.48
2018-11-07T03:36:19.922Z,10.48
2018-11-07T03:37:19.896Z,10.37
2018-11-07T03:38:19.891Z,10.35
2018-11-07T03:39:19.882Z,10.40
2018-11-07T03:40:19.872Z,10.37
2018-11-07T03:41:19.860Z,10.41
2018-11-07T03:42:19.857Z,10.37
2018-11-07T03:43:19.847Z,10.33
2018-11-07T03:44:19.853Z,10.33
2018-11-07T03:45:19.832Z,10.30
2018-11-07T03:46:19.824Z,10.31
2018-11-07T03:47:19.816Z,10.26
2018-11-07T03:48:19.809Z,10.25
2018-11-07T03:49:19.804Z,10.25
2018-11-07T03:50:19.803Z,10.33
2018-11-07T03:51:19.784Z,10.31
2018-11-07T03:52:19.773Z,10.25
2018-11-07T03:53:19.824Z,10.33
2018-11-07T03:54:19.765Z,10.25
2018-11-07T03:55:19.748Z,10.23
2018-11-07T03:56:19.753Z,10.26
2018-11-07T03:57:19.744Z,10.22
2018-11-07T03:58:19.726Z,10.20
2018-11-07T03:59:19.715Z,10.26
2018-11-07T04:00:19.711Z,10.19
2018-11-07T04:01:19.715Z,10.15
2018-11-07T04:02:19.693Z,10.22
2018-11-07T04:03:19.687Z,10.13
2018-11-07T04:04:19.678Z,10.13
2018-11-07T04:05:19.672Z,10.15
2018-11-07T04:06:19.667Z,10.15
2018-11-07T04:07:19.689Z,10.20
2018-11-07T04:08:19.664Z,10.12
2018-11-07T04:09:19.634Z,10.13
2018-11-07T04:10:19.624Z,10.16
2018-11-07T04:11:19.632Z,10.13
2018-11-07T04:12:19.609Z,10.01
2018-11-07T04:13:19.606Z,10.01
2018-11-07T04:14:19.592Z,9.97
2018-11-07T04:15:19.601Z,9.99
2018-11-07T04:16:19.576Z,10.07
2018-11-07T04:17:19.566Z,9.97
2018-11-07T04:18:19.563Z,9.98
2018-11-07T04:19:19.553Z,9.94
2018-11-07T04:20:19.549Z,9.99
2018-11-07T04:21:19.538Z,10.01
2018-11-07T04:22:19.532Z,9.98
2018-11-07T04:23:19.521Z,9.98
2018-11-07T04:24:19.512Z,9.83
2018-11-07T04:25:19.507Z,9.84
2018-11-07T04:26:19.495Z,9.82
2018-11-07T04:27:19.489Z,9.82
2018-11-07T04:28:19.488Z,9.83
2018-11-07T04:29:19.472Z,9.84
2018-11-07T04:30:19.471Z,9.84
2018-11-07T04:31:19.471Z,9.82
2018-11-07T04:32:19.464Z,9.82
2018-11-07T04:33:19.439Z,9.80
2018-11-07T04:34:19.431Z,9.91
2018-11-07T04:35:19.427Z,9.87
2018-11-07T04:36:19.411Z,9.74
2018-11-07T04:37:19.411Z,9.74
2018-11-07T04:38:19.397Z,9.73
2018-11-07T04:39:19.503Z,9.73
2018-11-07T04:40:19.383Z,9.74
2018-11-07T04:41:19.369Z,9.76
2018-11-07T04:42:19.371Z,9.77
2018-11-07T04:43:19.356Z,9.72
2018-11-07T04:44:19.349Z,9.73
2018-11-07T04:45:19.347Z,9.87
2018-11-07T04:46:19.331Z,9.69
2018-11-07T04:47:19.327Z,9.80
2018-11-07T04:48:19.326Z,9.72
2018-11-07T04:49:19.305Z,9.69
2018-11-07T04:50:19.301Z,9.68
2018-11-07T04:51:19.288Z,9.72
2018-11-07T04:52:19.283Z,9.69
2018-11-07T04:53:19.272Z,9.69
2018-11-07T04:54:19.280Z,9.72
2018-11-07T04:55:19.262Z,9.73
2018-11-07T04:56:19.245Z,9.73
2018-11-07T04:57:19.243Z,9.68
2018-11-07T04:58:19.248Z,9.69
2018-11-07T04:59:19.231Z,9.82
2018-11-07T05:00:19.299Z,9.76
2018-11-07T05:01:19.208Z,9.72
2018-11-07T05:02:19.206Z,9.74
2018-11-07T05:03:19.193Z,9.74
2018-11-07T05:04:19.179Z,9.62
2018-11-07T05:05:19.173Z,9.73
2018-11-07T05:06:19.187Z,9.72
2018-11-07T05:07:19.161Z,9.76
2018-11-07T05:08:19.147Z,9.68
2018-11-07T05:09:19.142Z,9.72
2018-11-07T05:10:19.135Z,9.72
2018-11-07T05:11:19.125Z,9.62
2018-11-07T05:12:19.119Z,9.68
2018-11-07T05:13:19.106Z,9.69
2018-11-07T05:14:19.099Z,9.68
2018-11-07T05:15:19.094Z,9.62
2018-11-07T05:16:19.087Z,9.69
2018-11-07T05:17:19.073Z,9.59
2018-11-07T05:18:19.067Z,9.64
2018-11-07T05:19:19.082Z,9.61
2018-11-07T05:20:19.051Z,9.54
2018-11-07T05:21:19.042Z,9.61
2018-11-07T05:22:19.032Z,9.46
2018-11-07T05:23:19.027Z,9.44
2018-11-07T05:24:19.017Z,9.46
2018-11-07T05:25:19.009Z,9.46
2018-11-07T05:26:19.083Z,9.48
2018-11-07T05:27:18.995Z,9.50
2018-11-07T05:28:18.998Z,9.44
2018-11-07T05:29:18.984Z,9.44
2018-11-07T05:30:18.991Z,9.40
2018-11-07T05:31:18.964Z,9.44
2018-11-07T05:32:18.952Z,9.43
2018-11-07T05:33:18.953Z,9.40
2018-11-07T05:34:18.936Z,9.36
2018-11-07T05:35:18.935Z,9.39
2018-11-07T05:36:18.925Z,9.39
2018-11-07T05:37:18.914Z,9.36
2018-11-07T05:38:18.909Z,9.39
2018-11-07T05:39:18.901Z,9.36
2018-11-07T05:40:18.906Z,9.28
2018-11-07T05:41:18.914Z,9.32
2018-11-07T05:42:18.870Z,9.32
2018-11-07T05:43:18.866Z,9.34
2018-11-07T05:44:18.852Z,9.37
2018-11-07T05:45:18.842Z,9.31
2018-11-07T05:46:18.835Z,9.40
2018-11-07T05:47:18.843Z,9.34
2018-11-07T05:48:18.826Z,9.37
2018-11-07T05:49:18.815Z,9.40
2018-11-07T05:50:18.806Z,9.34
2018-11-07T05:51:18.790Z,9.36
2018-11-07T05:52:18.790Z,9.36
2018-11-07T05:53:18.780Z,9.37
2018-11-07T05:54:18.771Z,9.34
2018-11-07T05:55:18.764Z,9.47
2018-11-07T05:56:18.755Z,9.41
2018-11-07T05:57:18.746Z,9.41
2018-11-07T05:58:18.733Z,9.44
2018-11-07T05:59:18.731Z,9.43
2018-11-07T06:00:18.726Z,9.50
2018-11-07T06:01:18.711Z,9.54
2018-11-07T06:02:18.699Z,9.44
2018-11-07T06:03:18.696Z,9.54
2018-11-07T06:04:18.687Z,9.58
2018-11-07T06:05:18.672Z,9.59
2018-11-07T06:06:18.670Z,9.61
2018-11-07T06:07:18.685Z,9.65
2018-11-07T06:08:18.650Z,9.74
2018-11-07T06:09:18.652Z,9.74
2018-11-07T06:10:18.641Z,9.79
2018-11-07T06:11:18.629Z,9.73
2018-11-07T06:12:18.618Z,9.76
2018-11-07T06:13:18.615Z,9.76
2018-11-07T06:14:18.606Z,9.79
2018-11-07T06:15:18.594Z,9.87
2018-11-07T06:16:18.776Z,9.89
2018-11-07T06:17:18.581Z,9.92
2018-11-07T06:18:18.568Z,9.98
2018-11-07T06:19:18.561Z,9.98
2018-11-07T06:20:18.558Z,9.99
2018-11-07T06:21:18.566Z,10.07
2018-11-07T06:22:18.531Z,10.07
2018-11-07T06:23:18.531Z,10.15
2018-11-07T06:24:18.627Z,10.12
2018-11-07T06:25:18.511Z,10.15
2018-11-07T06:26:18.531Z,10.07
2018-11-07T06:27:18.497Z,10.10
2018-11-07T06:28:18.483Z,10.10
2018-11-07T06:29:18.476Z,10.07
2018-11-07T06:30:18.465Z,10.15
2018-11-07T06:31:18.463Z,10.15
2018-11-07T06:32:18.449Z,10.09
2018-11-07T06:33:18.441Z,10.10
2018-11-07T06:34:18.445Z,10.13
2018-11-07T06:35:18.423Z,10.10
2018-11-07T06:36:18.420Z,10.12
2018-11-07T06:37:18.408Z,10.13
2018-11-07T06:38:18.398Z,10.16
2018-11-07T06:39:18.395Z,10.10
2018-11-07T06:40:18.383Z,10.12
2018-11-07T06:41:18.387Z,10.01
2018-11-07T06:42:18.364Z,10.01
2018-11-07T06:43:18.366Z,10.05
2018-11-07T06:44:18.367Z,10.07
2018-11-07T06:45:18.362Z,9.99
2018-11-07T06:46:18.341Z,9.98
2018-11-07T06:47:18.342Z,10.02
2018-11-07T06:48:18.331Z,9.95
2018-11-07T06:49:18.327Z,9.95
2018-11-07T06:50:18.313Z,9.91
2018-11-07T06:51:18.291Z,9.86
2018-11-07T06:52:18.291Z,9.87
2018-11-07T06:53:18.275Z,9.84
2018-11-07T06:54:18.275Z,9.79
2018-11-07T06:55:18.309Z,9.82
2018-11-07T06:56:18.256Z,9.83
2018-11-07T06:57:18.243Z,9.77
2018-11-07T06:58:18.233Z,9.74
2018-11-07T06:59:18.227Z,9.74
2018-11-07T07:00:18.237Z,9.74
2018-11-07T07:01:18.243Z,9.76
2018-11-07T07:02:18.204Z,9.76
2018-11-07T07:03:18.199Z,9.76
2018-11-07T07:04:18.188Z,9.68
2018-11-07T07:05:18.178Z,9.72
2018-11-07T07:06:18.171Z,9.76
2018-11-07T07:07:18.194Z,9.72
2018-11-07T07:08:18.158Z,9.65
2018-11-07T07:09:18.165Z,9.76
2018-11-07T07:10:18.141Z,9.72
2018-11-07T07:11:18.130Z,9.68
2018-11-07T07:12:18.119Z,9.65
2018-11-07T07:13:18.118Z,9.66
2018-11-07T07:14:18.108Z,9.64
2018-11-07T07:15:18.093Z,9.61
2018-11-07T07:16:18.095Z,9.65
2018-11-07T07:17:18.096Z,9.62
2018-11-07T07:18:18.072Z,9.58
2018-11-07T07:19:18.063Z,9.50
2018-11-07T07:20:18.050Z,9.68
2018-11-07T07:21:18.045Z,9.64
2018-11-07T07:22:18.034Z,9.58
2018-11-07T07:23:18.039Z,9.59
2018-11-07T07:24:18.020Z,9.64
2018-11-07T07:25:18.013Z,9.66
2018-11-07T07:26:18.006Z,9.64
2018-11-07T07:27:18.000Z,9.72
2018-11-07T07:28:17.990Z,9.72
2018-11-07T07:29:17.979Z,9.76
2018-11-07T07:30:18.006Z,9.66
2018-11-07T07:31:17.990Z,9.69
2018-11-07T07:32:17.966Z,9.66
2018-11-07T07:33:18.014Z,9.79
2018-11-07T07:34:17.943Z,9.66
2018-11-07T07:35:17.950Z,9.61
2018-11-07T07:36:17.926Z,9.73
2018-11-07T07:37:17.936Z,9.68
2018-11-07T07:38:17.908Z,9.72
2018-11-07T07:39:17.900Z,9.72
2018-11-07T07:40:17.892Z,9.72
2018-11-07T07:41:17.910Z,9.82
2018-11-07T07:42:17.877Z,9.80
2018-11-07T07:43:17.868Z,9.80
2018-11-07T07:44:17.862Z,9.80
2018-11-07T07:45:17.861Z,9.84
2018-11-07T07:46:17.851Z,9.83
2018-11-07T07:47:17.836Z,9.83
2018-11-07T07:48:17.831Z,9.98
2018-11-07T07:49:17.920Z,9.98
2018-11-07T07:50:17.832Z,9.95
2018-11-07T07:51:17.842Z,9.98
2018-11-07T07:52:17.800Z,9.95
2018-11-07T07:53:17.888Z,9.95
2018-11-07T07:54:17.805Z,10.05
2018-11-07T07:55:17.815Z,10.04
2018-11-07T07:56:17.777Z,10.10
2018-11-07T07:57:17.802Z,10.12
2018-11-07T07:58:17.754Z,10.15
2018-11-07T07:59:17.747Z,10.20
2018-11-07T08:00:17.755Z,10.17
2018-11-07T08:01:17.729Z,10.23
2018-11-07T08:02:17.726Z,10.31
2018-11-07T08:03:17.714Z,10.26
2018-11-07T08:04:17.711Z,10.35
2018-11-07T08:05:17.701Z,10.34
2018-11-07T08:06:17.690Z,10.30
2018-11-07T08:07:17.690Z,10.37
2018-11-07T08:08:17.670Z,10.42
2018-11-07T08:09:17.668Z,10.48
2018-11-07T08:10:17.659Z,10.41
2018-11-07T08:11:17.648Z,10.59
2018-11-07T08:12:17.643Z,10.54
2018-11-07T08:13:17.657Z,10.67
2018-11-07T08:14:17.630Z,10.68
2018-11-07T08:15:17.615Z,10.79
2018-11-07T08:16:17.619Z,10.86
2018-11-07T08:17:18.547Z,10.97
2018-11-07T08:18:17.596Z,11.07
2018-11-07T08:19:17.601Z,11.11
2018-11-07T08:20:17.584Z,11.23
2018-11-07T08:21:17.664Z,11.27
2018-11-07T08:22:17.562Z,11.40
2018-11-07T08:23:17.560Z,11.47
2018-11-07T08:24:17.547Z,11.62
2018-11-07T08:25:17.544Z,11.81
2018-11-07T08:26:17.546Z,12.03
2018-11-07T08:27:17.528Z,12.06
2018-11-07T08:28:17.521Z,12.28
2018-11-07T08:29:17.526Z,12.68
2018-11-07T08:30:17.505Z,12.87
2018-11-07T08:31:17.505Z,13.18
2018-11-07T08:32:17.516Z,13.33
2018-11-07T08:33:17.493Z,13.52
2018-11-07T08:34:17.517Z,13.54
2018-11-07T08:35:17.500Z,13.52
2018-11-07T08:36:17.467Z,13.75
2018-11-07T08:37:17.472Z,13.83
2018-11-07T08:38:17.462Z,13.95
2018-11-07T08:39:17.494Z,14.22
2018-11-07T08:40:17.456Z,14.29
2018-11-07T08:41:17.447Z,14.45
2018-11-07T08:42:17.475Z,14.50
2018-11-07T08:43:17.436Z,14.66
2018-11-07T08:44:17.433Z,14.82
2018-11-07T08:45:17.432Z,15.06
2018-11-07T08:46:17.428Z,15.06
2018-11-07T08:47:17.490Z,15.15
2018-11-07T08:48:17.485Z,15.28
2018-11-07T08:49:17.441Z,15.36
2018-11-07T08:50:17.429Z,15.40
2018-11-07T08:51:17.410Z,15.52
2018-11-07T08:52:17.418Z,15.54
2018-11-07T08:53:17.427Z,15.62
2018-11-07T08:54:17.410Z,15.80
2018-11-07T08:55:17.407Z,15.86
2018-11-07T08:56:17.396Z,15.86
2018-11-07T08:57:17.389Z,15.92
2018-11-07T08:58:17.401Z,15.86
2018-11-07T08:59:17.400Z,15.95
2018-11-07T09:00:17.404Z,15.94
2018-11-07T09:01:17.464Z,15.98
2018-11-07T09:02:17.467Z,16.05
2018-11-07T09:03:17.394Z,16.05
2018-11-07T09:04:17.377Z,16.08
2018-11-07T09:05:17.374Z,16.35
2018-11-07T09:06:17.380Z,16.36
2018-11-07T09:07:17.385Z,16.41
2018-11-07T09:08:17.369Z,16.47
2018-11-07T09:09:17.378Z,16.72
2018-11-07T09:10:17.363Z,16.83
2018-11-07T09:11:17.365Z,16.93
2018-11-07T09:12:17.446Z,17.15
2018-11-07T09:13:17.365Z,17.11
2018-11-07T09:14:17.375Z,17.16
2018-11-07T09:15:17.365Z,17.16
2018-11-07T09:16:17.371Z,17.14
2018-11-07T09:17:17.356Z,17.23
2018-11-07T09:18:17.356Z,17.15
2018-11-07T09:19:17.363Z,17.31
2018-11-07T09:20:17.361Z,17.60
2018-11-07T09:21:17.358Z,17.67
2018-11-07T09:22:17.353Z,17.74
2018-11-07T09:23:17.359Z,17.86
2018-11-07T09:24:17.399Z,17.89
2018-11-07T09:25:17.362Z,17.92
2018-11-07T09:26:17.363Z,17.90
2018-11-07T09:27:17.374Z,17.94
2018-11-07T09:28:17.357Z,18.01
2018-11-07T09:29:17.409Z,17.95
2018-11-07T09:30:17.388Z,17.98
2018-11-07T09:31:17.353Z,18.00
2018-11-07T09:32:17.348Z,18.04
2018-11-07T09:33:17.348Z,18.05
2018-11-07T09:34:17.351Z,18.26
2018-11-07T09:35:17.349Z,18.31
2018-11-07T09:36:17.352Z,18.28
2018-11-07T09:37:17.351Z,18.28
2018-11-07T09:38:17.350Z,18.23
2018-11-07T09:39:17.355Z,18.34
2018-11-07T09:40:17.351Z,18.47
2018-11-07T09:41:17.360Z,18.52
2018-11-07T09:42:17.371Z,18.56
2018-11-07T09:43:17.355Z,18.62
2018-11-07T09:44:17.357Z,18.74
2018-11-07T09:45:17.353Z,18.77
2018-11-07T09:46:17.356Z,18.74
2018-11-07T09:47:17.377Z,18.88
2018-11-07T09:48:17.419Z,19.08
2018-11-07T09:49:17.356Z,19.02
2018-11-07T09:50:17.359Z,19.07
2018-11-07T09:51:17.361Z,19.12
2018-11-07T09:52:17.365Z,19.22
2018-11-07T09:53:17.363Z,19.31
2018-11-07T09:54:17.419Z,19.37
2018-11-07T09:55:17.367Z,19.36
2018-11-07T09:56:17.363Z,19.34
2018-11-07T09:57:17.372Z,19.45
2018-11-07T09:58:17.363Z,19.44
2018-11-07T09:59:17.413Z,19.39
2018-11-07T10:00:17.372Z,19.31
2018-11-07T10:01:17.378Z,19.27
2018-11-07T10:02:17.393Z,19.22
2018-11-07T10:03:17.377Z,19.37
2018-11-07T10:04:17.374Z,19.29
2018-11-07T10:05:17.392Z,19.39
2018-11-07T10:06:17.377Z,19.39
2018-11-07T10:07:17.379Z,19.51
2018-11-07T10:08:17.375Z,19.56
2018-11-07T10:09:17.377Z,19.82
2018-11-07T10:10:17.386Z,19.81
2018-11-07T10:11:17.381Z,19.81
2018-11-07T10:12:17.406Z,19.79
2018-11-07T10:13:17.384Z,19.84
2018-11-07T10:14:17.387Z,19.74
2018-11-07T10:15:17.391Z,19.69
2018-11-07T10:16:17.404Z,20.03
2018-11-07T10:17:17.393Z,20.00
2018-11-07T10:18:17.413Z,20.09
2018-11-07T10:19:17.401Z,20.14
2018-11-07T10:20:17.403Z,20.22
2018-11-07T10:21:17.404Z,20.24
2018-11-07T10:22:17.399Z,20.10
2018-11-07T10:23:17.408Z,20.19
2018-11-07T10:24:17.413Z,20.06
2018-11-07T10:25:17.410Z,20.06
2018-11-07T10:26:17.409Z,20.09
2018-11-07T10:27:17.700Z,20.24
2018-11-07T10:28:17.566Z,20.16
2018-11-07T10:29:17.843Z,20.19
2018-11-07T10:30:17.769Z,20.19
2018-11-07T10:31:17.434Z,20.24
2018-11-07T10:32:17.423Z,20.26
2018-11-07T10:33:17.428Z,20.21
2018-11-07T10:34:17.421Z,20.26
2018-11-07T10:35:17.422Z,20.37
2018-11-07T10:36:17.426Z,20.48
2018-11-07T10:37:17.448Z,20.51
2018-11-07T10:38:17.520Z,20.67
2018-11-07T10:39:17.439Z,20.67
2018-11-07T10:40:17.440Z,20.60
2018-11-07T10:41:17.453Z,20.56
2018-11-07T10:42:17.445Z,20.59
2018-11-07T10:43:17.443Z,20.56
2018-11-07T10:44:17.494Z,20.62
2018-11-07T10:45:17.444Z,20.44
2018-11-07T10:46:17.447Z,20.43
2018-11-07T10:47:17.457Z,20.40
2018-11-07T10:48:17.450Z,20.37
2018-11-07T10:49:17.454Z,20.40
2018-11-07T10:50:17.457Z,20.34
2018-11-07T10:51:17.507Z,20.51
2018-11-07T10:52:17.457Z,20.77
2018-11-07T10:53:17.457Z,20.69
2018-11-07T10:54:17.463Z,20.84
2018-11-07T10:55:17.463Z,20.78
2018-11-07T10:56:17.467Z,20.72
2018-11-07T10:57:17.475Z,20.63
2018-11-07T10:58:17.473Z,20.66
2018-11-07T10:59:17.477Z,20.63
2018-11-07T11:00:17.489Z,20.67
2018-11-07T11:01:17.496Z,20.66
2018-11-07T11:02:17.477Z,20.67
2018-11-07T11:03:17.477Z,20.69
2018-11-07T11:04:17.482Z,20.81
2018-11-07T11:05:17.571Z,20.93
2018-11-07T11:06:17.483Z,21.00
2018-11-07T11:07:17.504Z,20.96
2018-11-07T11:08:17.487Z,20.82
2018-11-07T11:09:17.490Z,20.77
2018-11-07T11:10:17.494Z,20.74
2018-11-07T11:11:17.526Z,20.65
2018-11-07T11:12:17.499Z,20.63
2018-11-07T11:13:17.497Z,20.51
2018-11-07T11:14:17.497Z,20.65
2018-11-07T11:15:17.499Z,20.65
2018-11-07T11:16:17.502Z,20.67
2018-11-07T11:17:17.512Z,20.75
2018-11-07T11:18:17.523Z,20.67
2018-11-07T11:19:17.514Z,20.77
2018-11-07T11:20:17.515Z,20.90
2018-11-07T11:21:17.517Z,20.97
2018-11-07T11:22:17.529Z,20.95
2018-11-07T11:23:17.521Z,20.95
2018-11-07T11:24:17.519Z,20.92
2018-11-07T11:25:17.523Z,20.70
2018-11-07T11:26:17.521Z,20.70
2018-11-07T11:27:17.531Z,20.97
2018-11-07T11:28:17.530Z,21.09
2018-11-07T11:29:17.530Z,21.07
2018-11-07T11:30:17.527Z,21.14
2018-11-07T11:31:17.538Z,21.11
2018-11-07T11:32:17.539Z,21.20
2018-11-07T11:33:17.529Z,21.15
2018-11-07T11:34:17.663Z,20.96
2018-11-07T11:35:17.752Z,20.66
2018-11-07T11:36:17.540Z,20.75
2018-11-07T11:37:17.539Z,20.66
2018-11-07T11:38:17.546Z,20.55
2018-11-07T11:39:17.560Z,20.58
2018-11-07T11:40:17.559Z,20.63
2018-11-07T11:41:17.634Z,20.62
2018-11-07T11:42:17.583Z,20.74
2018-11-07T11:43:17.566Z,20.81
2018-11-07T11:44:17.556Z,20.77
2018-11-07T11:45:17.559Z,20.80
2018-11-07T11:46:17.563Z,20.87
2018-11-07T11:47:17.560Z,20.74
2018-11-07T11:48:17.576Z,20.78
2018-11-07T11:49:17.678Z,20.78
2018-11-07T11:50:17.568Z,20.85
2018-11-07T11:51:17.638Z,20.63
2018-11-07T11:52:17.570Z,20.65
2018-11-07T11:53:17.585Z,20.69
2018-11-07T11:54:17.584Z,20.66
2018-11-07T11:55:17.572Z,20.62
2018-11-07T11:56:17.573Z,20.78
2018-11-07T11:57:17.580Z,20.78
2018-11-07T11:58:17.583Z,20.80
2018-11-07T11:59:17.714Z,20.97
2018-11-07T12:00:17.643Z,20.93
2018-11-07T12:01:17.589Z,21.05
2018-11-07T12:02:17.657Z,21.07
2018-11-07T12:03:17.599Z,21.06
2018-11-07T12:04:17.590Z,20.99
2018-11-07T12:05:17.596Z,20.82
2018-11-07T12:06:17.590Z,20.62
2018-11-07T12:07:17.590Z,20.51
2018-11-07T12:08:17.644Z,20.50
2018-11-07T12:09:17.593Z,20.25
2018-11-07T12:10:17.593Z,20.13
2018-11-07T12:11:17.597Z,20.24
2018-11-07T12:12:17.596Z,20.34
2018-11-07T12:13:17.648Z,20.25
2018-11-07T12:14:17.594Z,20.39
2018-11-07T12:15:17.709Z,20.29
2018-11-07T12:16:17.604Z,20.41
2018-11-07T12:17:17.596Z,20.48
2018-11-07T12:18:17.610Z,20.44
2018-11-07T12:19:17.603Z,20.52
2018-11-07T12:20:17.595Z,20.56
2018-11-07T12:21:17.625Z,20.56
2018-11-07T12:22:17.597Z,20.74
2018-11-07T12:23:17.602Z,20.97
2018-11-07T12:24:17.595Z,20.92
2018-11-07T12:25:17.605Z,20.93
2018-11-07T12:26:17.597Z,20.87
2018-11-07T12:27:17.603Z,21.00
2018-11-07T12:28:17.591Z,21.15
2018-11-07T12:29:17.591Z,21.07
2018-11-07T12:30:17.593Z,21.22
2018-11-07T12:31:17.603Z,21.30
2018-11-07T12:32:17.595Z,21.30
2018-11-07T12:33:17.602Z,21.39
2018-11-07T12:34:17.593Z,21.52
2018-11-07T12:35:17.592Z,21.48
2018-11-07T12:36:17.629Z,21.35
2018-11-07T12:37:17.626Z,21.09
2018-11-07T12:38:17.595Z,21.02
2018-11-07T12:39:17.595Z,20.88
2018-11-07T12:40:17.587Z,20.93
2018-11-07T12:41:17.586Z,20.95
2018-11-07T12:42:17.585Z,20.74
2018-11-07T12:43:17.585Z,20.63
2018-11-07T12:44:17.585Z,20.47
2018-11-07T12:45:17.590Z,20.31
2018-11-07T12:46:17.593Z,20.19
2018-11-07T12:47:17.591Z,20.11
2018-11-07T12:48:17.590Z,20.07
2018-11-07T12:49:17.582Z,19.96
2018-11-07T12:50:17.637Z,19.73
2018-11-07T12:51:17.579Z,19.56
2018-11-07T12:52:17.578Z,19.44
2018-11-07T12:53:17.584Z,19.49
2018-11-07T12:54:17.575Z,19.27
2018-11-07T12:55:17.574Z,19.36
2018-11-07T12:56:17.570Z,19.33
2018-11-07T12:57:17.641Z,19.16
2018-11-07T12:58:17.716Z,19.09